Time;durP1;ratioP1;P1;durP2;ratioP2;P2;SDS_P1;SDS_P2;PMS_P1;PMS_P2;Temp;Humidity;BMP_temperature;BMP_pressure;BME280_temperature;BME280_humidity;BME280_pressure;Samples;Min_cycle;Max_cycle;Signal;HPM_P1;HPM_P2
2021/05/22 00:01:28;;;;;;;3.65;1.70;;;;;;;16.37;100.00;98414.67;4221008;83;28497;-84
2021/05/22 00:07:30;;;;;;;3.50;2.08;;;;;;;16.33;100.00;98391.11;4239827;83;28509;-82
2021/05/22 00:13:31;;;;;;;4.35;1.80;;;;;;;16.27;100.00;98387.64;4250719;83;28520;-84
2021/05/22 00:19:33;;;;;;;3.25;1.80;;;;;;;16.10;100.00;98375.32;4220967;83;28491;-84
2021/05/22 00:25:34;;;;;;;4.47;1.80;;;;;;;16.17;100.00;98370.36;4221010;83;28513;-84
2021/05/22 00:31:35;;;;;;;3.15;1.80;;;;;;;15.78;100.00;98348.16;4220868;83;28527;-83
2021/05/22 00:37:36;;;;;;;3.12;1.77;;;;;;;15.48;100.00;98330.47;4220861;83;28496;-83
2021/05/22 00:43:38;;;;;;;3.35;2.02;;;;;;;15.88;100.00;98324.22;4239642;83;28489;-83
2021/05/22 00:49:39;;;;;;;3.27;2.20;;;;;;;15.81;100.00;98325.91;4220849;83;28524;-82
2021/05/22 00:55:40;;;;;;;5.70;2.00;;;;;;;15.64;100.00;98312.77;4241291;83;28532;-82
2021/05/22 01:01:43;;;;;;;2.45;1.90;;;;;;;15.60;100.00;98324.70;4220815;83;28540;-82
2021/05/22 01:07:47;;;;;;;3.25;2.22;;;;;;;15.40;100.00;98331.61;4220831;83;28557;-84
2021/05/22 01:13:52;;;;;;;7.08;2.60;;;;;;;15.58;100.00;98327.42;4220762;83;28528;-83
2021/05/22 01:20:29;;;;;;;5.17;2.30;;;;;;;15.35;100.00;98332.45;4239961;83;28501;-83
2021/05/22 01:26:31;;;;;;;4.70;2.40;;;;;;;15.14;100.00;98324.44;4237849;83;28545;-83
2021/05/22 01:32:34;;;;;;;3.62;1.82;;;;;;;14.85;100.00;98318.91;4220824;83;28497;-84
2021/05/22 01:38:35;;;;;;;5.62;2.20;;;;;;;14.89;100.00;98303.19;4181873;83;28501;-83
2021/05/22 01:44:39;;;;;;;3.08;1.98;;;;;;;14.74;100.00;98300.00;4170220;84;28552;-83
2021/05/22 01:50:44;;;;;;;3.80;1.95;;;;;;;14.89;100.00;98276.66;4174162;84;28549;-83
2021/05/22 01:56:46;;;;;;;4.83;2.37;;;;;;;14.84;100.00;98278.84;4184887;84;28493;-83
2021/05/22 02:03:05;;;;;;;3.65;2.30;;;;;;;14.61;100.00;98276.20;4174669;84;28624;-82
2021/05/22 02:09:06;;;;;;;3.87;2.10;;;;;;;14.49;100.00;98261.09;4174776;84;28485;-82
2021/05/22 02:15:11;;;;;;;5.58;2.00;;;;;;;14.64;100.00;98259.44;4192282;85;28491;-83
2021/05/22 02:21:13;;;;;;;5.37;2.47;;;;;;;14.81;100.00;98260.99;4209402;83;28559;-84
2021/05/22 02:27:16;;;;;;;4.15;2.42;;;;;;;14.73;100.00;98263.19;4158285;84;28498;-83
2021/05/22 02:33:19;;;;;;;4.55;2.47;;;;;;;14.46;100.00;98271.65;4158165;84;28497;-85
2021/05/22 02:39:22;;;;;;;4.53;2.72;;;;;;;14.41;100.00;98275.73;4223407;82;28501;-84
2021/05/22 02:45:26;;;;;;;3.67;2.50;;;;;;;14.22;100.00;98261.45;4241502;82;28500;-84
2021/05/22 02:51:29;;;;;;;3.67;2.17;;;;;;;14.00;100.00;98263.11;4241106;82;28527;-83
2021/05/22 02:57:34;;;;;;;5.62;2.62;;;;;;;14.04;100.00;98259.59;4224975;82;28479;-84
2021/05/22 03:03:36;;;;;;;3.77;2.60;;;;;;;14.08;100.00;98262.03;4271893;82;28482;-84
2021/05/22 03:09:37;;;;;;;4.30;2.90;;;;;;;14.08;100.00;98257.97;4251044;82;28547;-83
2021/05/22 03:15:38;;;;;;;3.65;2.40;;;;;;;13.97;100.00;98260.95;4241304;82;28608;-83
2021/05/22 03:21:40;;;;;;;3.92;2.40;;;;;;;13.97;100.00;98260.95;4241189;82;28540;-83
2021/05/22 03:27:41;;;;;;;3.33;2.20;;;;;;;13.91;100.00;98269.09;4241157;82;28563;-82
2021/05/22 03:33:42;;;;;;;4.90;2.92;;;;;;;14.35;100.00;98270.89;4326975;81;28483;-84
2021/05/22 03:39:44;;;;;;;6.42;2.70;;;;;;;14.43;100.00;98270.86;4342404;81;28586;-84
2021/05/22 03:45:45;;;;;;;4.55;2.60;;;;;;;14.54;100.00;98252.16;4350365;81;28512;-83
2021/05/22 03:51:46;;;;;;;4.83;2.72;;;;;;;14.86;100.00;98253.66;4343357;81;28590;-83
2021/05/22 03:57:48;;;;;;;5.17;2.65;;;;;;;15.08;100.00;98244.33;4364896;81;28511;-83
2021/05/22 04:03:49;;;;;;;4.58;2.85;;;;;;;15.11;100.00;98241.61;4329118;81;28503;-82
2021/05/22 04:09:50;;;;;;;7.25;3.17;;;;;;;15.37;100.00;98245.52;4255603;83;28519;-83
2021/05/22 04:15:52;;;;;;;4.40;2.92;;;;;;;15.11;100.00;98231.61;4209748;84;28534;-83
2021/05/22 04:21:53;;;;;;;6.50;2.65;;;;;;;15.44;100.00;98221.61;4232365;83;28562;-83
2021/05/22 04:27:55;;;;;;;3.72;2.50;;;;;;;15.23;100.00;98233.95;4241489;83;28485;-83
2021/05/22 04:33:56;;;;;;;4.55;3.02;;;;;;;15.53;100.00;98239.44;4221146;83;28473;-82
2021/05/22 04:39:57;;;;;;;6.08;3.27;;;;;;;15.99;100.00;98243.66;4177706;84;28527;-83
2021/05/22 04:45:58;;;;;;;5.83;3.00;;;;;;;16.14;100.00;98229.11;4165190;84;28564;-84
2021/05/22 04:52:00;;;;;;;6.67;2.98;;;;;;;16.65;100.00;98222.28;4164888;84;28519;-82
2021/05/22 04:58:01;;;;;;;7.45;3.50;;;;;;;16.86;100.00;98215.23;4165295;84;28608;-84
2021/05/22 05:04:03;;;;;;;6.42;3.42;;;;;;;16.84;100.00;98223.66;4177977;84;28598;-83
2021/05/22 05:10:06;;;;;;;8.53;3.65;;;;;;;16.98;100.00;98215.59;4197464;84;28562;-83
2021/05/22 05:16:07;;;;;;;5.12;3.72;;;;;;;17.19;100.00;98222.11;4190288;84;28501;-84
2021/05/22 05:22:09;;;;;;;5.20;3.30;;;;;;;17.65;100.00;98239.59;4180521;84;28542;-83
2021/05/22 05:28:10;;;;;;;8.48;3.98;;;;;;;17.73;100.00;98239.45;4176580;84;28505;-84
2021/05/22 05:34:11;;;;;;;6.70;3.37;;;;;;;18.25;100.00;98259.77;4188268;84;28484;-83
2021/05/22 05:40:13;;;;;;;8.45;3.77;;;;;;;18.25;100.00;98258.41;4211781;82;28532;-81
2021/05/22 05:46:14;;;;;;;4.95;3.52;;;;;;;17.87;100.00;98261.80;4262060;82;28488;-85
2021/05/22 05:52:15;;;;;;;6.08;4.28;;;;;;;17.85;100.00;98259.38;4249048;82;28523;-85
2021/05/22 05:58:17;;;;;;;6.75;3.45;;;;;;;17.84;100.00;98240.09;4273533;82;28567;-86
2021/05/22 06:04:18;;;;;;;7.17;3.62;;;;;;;18.73;100.00;98250.13;4269551;82;28522;-86
2021/05/22 06:10:20;;;;;;;4.72;3.30;;;;;;;19.11;100.00;98255.34;4246148;82;28522;-84
2021/05/22 06:16:36;;;;;;;10.15;3.70;;;;;;;19.26;100.00;98281.41;4268336;82;28531;-85
2021/05/22 06:22:34;;;;;;;5.20;3.37;;;;;;;19.13;100.00;98270.00;4286809;82;28484;-86
2021/05/22 06:28:36;;;;;;;6.20;3.52;;;;;;;19.31;100.00;98258.69;4248055;82;28543;-84
2021/05/22 06:34:37;;;;;;;7.03;3.75;;;;;;;19.42;100.00;98276.44;4253879;82;28483;-84
2021/05/22 06:40:39;;;;;;;6.45;3.75;;;;;;;20.01;95.17;98268.73;4248795;82;28562;-84
2021/05/22 06:52:42;;;;;;;10.43;3.80;;;;;;;20.05;96.68;98269.73;4316996;81;28554;-84
2021/05/22 06:58:43;;;;;;;4.65;3.25;;;;;;;20.19;94.50;98255.97;4296360;82;28476;-84
2021/05/22 07:04:45;;;;;;;8.03;4.08;;;;;;;20.66;85.54;98243.78;4173550;83;28515;-85
2021/05/22 07:10:47;;;;;;;7.15;4.03;;;;;;;20.75;88.09;98257.44;4218491;83;28494;-84
2021/05/22 07:16:55;;;;;;;6.67;3.55;;;;;;;20.81;90.15;98258.09;4298514;80;28515;-84
2021/05/22 07:22:56;;;;;;;5.67;3.77;;;;;;;21.10;87.20;98254.81;4299616;80;28484;-84
2021/05/22 07:28:57;;;;;;;5.72;3.27;;;;;;;21.15;84.32;98247.80;4301227;82;28578;-85
2021/05/22 07:34:59;;;;;;;5.37;3.17;;;;;;;21.39;78.64;98236.15;4322812;82;28465;-85
2021/05/22 07:41:00;;;;;;;6.08;2.90;;;;;;;21.38;75.33;98240.02;4301157;81;28502;-83
2021/05/22 07:47:02;;;;;;;8.45;3.00;;;;;;;22.03;74.45;98237.91;4322654;80;28588;-85
2021/05/22 07:53:03;;;;;;;5.85;2.80;;;;;;;22.35;70.04;98243.91;4324552;80;28488;-84
2021/05/22 07:59:05;;;;;;;3.72;2.62;;;;;;;22.47;65.76;98243.18;4179922;83;28532;-85
2021/05/22 08:05:07;;;;;;;4.05;2.55;;;;;;;22.60;61.23;98234.53;4171306;83;28534;-85
2021/05/22 08:11:09;;;;;;;4.05;2.10;;;;;;;22.38;54.13;98245.39;4167903;83;28602;-86
2021/05/22 08:17:10;;;;;;;3.20;2.12;;;;;;;22.38;55.98;98245.39;4167627;83;28567;-84
2021/05/22 08:23:11;;;;;;;3.90;2.40;;;;;;;21.99;58.96;98247.34;4177259;83;28611;-83
2021/05/22 08:29:14;;;;;;;3.50;2.30;;;;;;;21.62;61.81;98240.06;4191644;82;28493;-83
2021/05/22 08:35:15;;;;;;;5.87;2.50;;;;;;;21.44;58.49;98228.58;4202428;82;28497;-86
2021/05/22 08:41:17;;;;;;;3.33;2.15;;;;;;;20.77;62.29;98216.95;4209749;82;28517;-83
2021/05/22 08:47:20;;;;;;;4.45;2.05;;;;;;;20.99;60.37;98211.17;4175349;84;28554;-84
2021/05/22 08:53:22;;;;;;;4.10;2.60;;;;;;;21.24;64.28;98215.02;4204488;84;28521;-84
2021/05/22 08:59:25;;;;;;;4.33;2.60;;;;;;;21.02;70.06;98211.88;4164864;84;28512;-85
2021/05/22 09:05:29;;;;;;;2.95;2.08;;;;;;;21.03;68.09;98210.75;4216043;83;28502;-86
2021/05/22 09:11:52;;;;;;;5.33;2.58;;;;;;;20.93;68.78;98203.69;4185271;84;28503;-83
2021/05/22 09:18:14;;;;;;;3.62;2.25;;;;;;;21.06;74.98;98207.95;4190830;84;28547;-85
2021/05/22 09:24:15;;;;;;;4.15;2.40;;;;;;;20.65;86.18;98224.97;4194350;84;28512;-82
2021/05/22 09:30:18;;;;;;;3.72;2.58;;;;;;;20.48;99.62;98247.81;4161254;84;28482;-83
2021/05/22 09:36:19;;;;;;;6.33;3.47;;;;;;;20.04;100.00;98264.58;4187645;84;28528;-83
2021/05/22 09:42:30;;;;;;;6.12;2.77;;;;;;;20.03;100.00;98289.68;4198885;83;28592;-80
2021/05/22 09:48:33;;;;;;;4.83;2.55;;;;;;;19.88;100.00;98295.52;4194559;84;28529;-82
2021/05/22 09:54:48;;;;;;;2.98;2.20;;;;;;;19.12;100.00;98320.16;4182581;83;28493;-82
2021/05/22 10:00:55;;;;;;;5.80;3.10;;;;;;;18.41;100.00;98335.66;4189596;84;28472;-82
2021/05/22 10:06:58;;;;;;;9.88;3.60;;;;;;;18.02;100.00;98344.47;4183768;84;28588;-81
2021/05/22 10:13:00;;;;;;;5.70;3.20;;;;;;;17.76;100.00;98350.88;4194472;84;28489;-81
2021/05/22 10:19:01;;;;;;;6.50;3.10;;;;;;;17.67;100.00;98369.77;4191788;84;28505;-82
2021/05/22 10:25:08;;;;;;;4.90;2.62;;;;;;;17.55;100.00;98367.48;4197284;84;28615;-83
2021/05/22 10:31:09;;;;;;;4.92;2.60;;;;;;;17.76;100.00;98368.00;4194746;84;28524;-82
2021/05/22 10:37:10;;;;;;;7.75;2.95;;;;;;;17.68;100.00;98360.51;4198201;84;28578;-81
2021/05/22 10:43:13;;;;;;;7.00;3.15;;;;;;;17.48;100.00;98367.03;4189380;83;28539;-82
2021/05/22 10:49:16;;;;;;;5.05;2.42;;;;;;;17.16;100.00;98373.98;4171416;83;28535;-81
2021/05/22 10:55:21;;;;;;;3.83;1.80;;;;;;;16.59;100.00;98381.65;4178754;83;28509;-82
2021/05/22 11:01:31;;;;;;;3.72;1.60;;;;;;;16.96;100.00;98388.85;4184974;84;28571;-81
2021/05/22 11:07:32;;;;;;;1.87;1.30;;;;;;;16.93;100.00;98395.41;4195321;84;28497;-82
2021/05/22 11:13:38;;;;;;;2.47;1.27;;;;;;;17.49;100.00;98408.05;4183769;84;28489;-81
2021/05/22 11:20:07;;;;;;;2.25;0.85;;;;;;;17.48;100.00;98399.11;4189740;84;28669;-82
2021/05/22 11:26:08;;;;;;;2.17;1.15;;;;;;;17.53;100.00;98404.45;4187381;84;28548;-82
2021/05/22 11:32:47;;;;;;;1.55;0.90;;;;;;;18.05;100.00;98402.38;4180792;83;28647;-82
2021/05/22 11:38:53;;;;;;;2.12;1.27;;;;;;;17.82;100.00;98406.23;4175242;84;28491;-82
2021/05/22 11:44:54;;;;;;;3.00;1.25;;;;;;;18.72;100.00;98396.34;4181990;84;28529;-81
2021/05/22 11:51:06;;;;;;;2.83;1.30;;;;;;;18.91;100.00;98411.80;4182592;84;28547;-81
2021/05/22 11:57:17;;;;;;;1.77;1.30;;;;;;;18.72;100.00;98409.16;4200512;84;28676;-81
2021/05/22 12:03:27;;;;;;;5.17;1.85;;;;;;;18.77;100.00;98414.50;4195240;84;28528;-80
2021/05/22 12:09:37;;;;;;;3.75;1.25;;;;;;;18.97;100.00;98409.77;4186940;83;28642;-81
2021/05/22 12:15:40;;;;;;;4.05;1.85;;;;;;;18.72;100.00;98414.61;4187654;84;28517;-82
2021/05/22 12:21:51;;;;;;;2.08;1.45;;;;;;;18.97;100.00;98420.12;4187998;84;28493;-82
2021/05/22 12:27:53;;;;;;;4.10;1.70;;;;;;;18.39;100.00;98429.86;4193149;83;28611;-81
2021/05/22 12:34:06;;;;;;;3.22;1.70;;;;;;;18.65;100.00;98428.62;4192703;84;28577;-82
2021/05/22 12:40:10;;;;;;;4.65;2.55;;;;;;;18.27;100.00;98425.98;4208049;82;28567;-83
2021/05/22 12:46:38;;;;;;;4.03;2.30;;;;;;;18.53;100.00;98424.46;4266925;82;28546;-83
2021/05/22 12:52:56;;;;;;;3.25;1.67;;;;;;;18.99;100.00;98423.89;4263378;82;28565;-82
2021/05/22 12:59:12;;;;;;;4.92;1.82;;;;;;;19.30;90.25;98412.41;4269269;82;29109;-83
2021/05/22 13:05:21;;;;;;;2.60;1.77;;;;;;;19.64;93.07;98413.89;4264223;82;28593;-81
2021/05/22 13:11:23;;;;;;;2.55;1.55;;;;;;;20.12;84.24;98405.72;4268118;82;28592;-82
2021/05/22 13:17:26;;;;;;;3.22;1.70;;;;;;;20.09;82.50;98401.44;4257073;82;28624;-83
2021/05/22 13:23:48;;;;;;;2.80;1.50;;;;;;;20.24;76.28;98397.52;4278297;82;28602;-82
2021/05/22 13:29:59;;;;;;;3.92;1.57;;;;;;;20.36;74.79;98394.20;4271712;82;28512;-83
2021/05/22 13:36:01;;;;;;;4.85;1.80;;;;;;;20.71;74.31;98402.59;4262230;82;28567;-82
2021/05/22 13:42:02;;;;;;;2.37;1.32;;;;;;;19.71;76.96;98398.46;4262337;82;28591;-82
2021/05/22 13:48:06;;;;;;;2.47;1.22;;;;;;;19.82;76.71;98395.75;4271961;82;28564;-83
2021/05/22 13:54:08;;;;;;;1.90;1.22;;;;;;;19.51;72.61;98414.16;4264338;82;28609;-83
2021/05/22 14:00:11;;;;;;;2.02;1.22;;;;;;;19.70;67.04;98413.22;4261499;82;28529;-86
2021/05/22 14:06:13;;;;;;;2.77;1.55;;;;;;;19.64;66.46;98417.41;4260289;82;28488;-88
2021/05/22 14:12:14;;;;;;;2.45;1.30;;;;;;;19.72;66.32;98413.70;4262556;82;28488;-86
2021/05/22 14:18:22;;;;;;;3.25;1.62;;;;;;;19.72;63.77;98415.86;4277293;82;28545;-85
2021/05/22 14:24:19;;;;;;;3.12;1.47;;;;;;;20.13;66.03;98418.78;4269222;82;28552;-86
2021/05/22 14:30:22;;;;;;;2.55;1.30;;;;;;;19.72;65.11;98419.95;4263650;81;28503;-86
2021/05/22 14:36:23;;;;;;;1.85;1.25;;;;;;;19.92;65.42;98405.59;4226989;82;28573;-87
2021/05/22 14:42:25;;;;;;;3.60;1.60;;;;;;;19.89;65.63;98411.69;4243568;81;28531;-88
2021/05/22 14:48:30;;;;;;;3.47;1.50;;;;;;;19.83;61.76;98422.45;4221788;82;28506;-88
2021/05/22 14:54:31;;;;;;;1.82;1.20;;;;;;;20.28;60.73;98424.43;4152152;84;28500;-86
2021/05/22 15:00:33;;;;;;;2.65;1.45;;;;;;;20.52;58.50;98411.81;4194509;84;28514;-86
2021/05/22 15:06:35;;;;;;;2.60;1.40;;;;;;;20.59;59.30;98410.00;4168513;84;28471;-86
2021/05/22 15:12:37;;;;;;;3.40;1.60;;;;;;;20.58;58.40;98411.94;4184588;84;28603;-86
2021/05/22 15:18:39;;;;;;;2.12;1.20;;;;;;;20.55;57.94;98421.31;4339451;81;28462;-86
2021/05/22 15:24:41;;;;;;;3.25;1.70;;;;;;;20.45;59.85;98424.55;4149160;84;28528;-87
2021/05/22 15:30:42;;;;;;;2.50;1.60;;;;;;;20.72;58.37;98415.13;4173986;84;28513;-86
2021/05/22 15:36:44;;;;;;;2.92;1.92;;;;;;;20.54;61.75;98420.50;4328923;80;28528;-86
2021/05/22 15:42:45;;;;;;;4.17;1.80;;;;;;;20.70;60.67;98418.74;4146999;84;28506;-85
2021/05/22 16:01:25;;;;;;;2.70;1.65;;;;;;;20.24;63.55;98415.27;4206988;84;28513;-86
2021/05/22 16:07:23;;;;;;;4.08;1.98;;;;;;;20.12;66.06;98420.73;4190760;84;28577;-85
2021/05/22 16:13:25;;;;;;;4.20;2.12;;;;;;;19.48;63.63;98418.87;4186578;84;28532;-85
2021/05/22 16:19:26;;;;;;;3.45;1.65;;;;;;;19.55;63.48;98431.50;4184288;84;28454;-85
2021/05/22 16:25:30;;;;;;;3.08;1.77;;;;;;;19.23;66.51;98434.62;4175284;84;28572;-86
2021/05/22 16:31:31;;;;;;;2.98;1.40;;;;;;;18.29;69.09;98453.16;4185535;84;28548;-86
2021/05/22 16:37:33;;;;;;;2.40;1.00;;;;;;;18.60;67.77;98459.45;4176320;84;28501;-86
2021/05/22 16:43:35;;;;;;;4.22;1.42;;;;;;;19.18;68.71;98449.16;4200922;82;28513;-85
2021/05/22 16:49:36;;;;;;;3.60;1.10;;;;;;;19.18;70.37;98442.34;4184609;84;28485;-85
2021/05/22 16:55:38;;;;;;;2.50;1.22;;;;;;;19.57;66.03;98447.56;4173326;84;28555;-85
2021/05/22 17:01:39;;;;;;;2.55;1.40;;;;;;;20.04;66.97;98440.55;4177795;84;28573;-86
2021/05/22 17:07:41;;;;;;;5.33;1.70;;;;;;;20.27;64.41;98449.56;4178943;84;28499;-84
2021/05/22 17:13:43;;;;;;;2.42;1.42;;;;;;;20.72;63.05;98450.64;4184161;84;28588;-85
2021/05/22 17:19:44;;;;;;;4.53;1.85;;;;;;;21.11;62.23;98447.72;4188057;84;28501;-86
2021/05/22 17:25:47;;;;;;;3.10;1.65;;;;;;;20.93;63.12;98454.23;4175670;84;28611;-86
2021/05/22 17:31:48;;;;;;;7.15;2.20;;;;;;;21.25;60.52;98466.75;4175181;84;28507;-85
2021/05/22 17:37:50;;;;;;;3.62;2.10;;;;;;;20.96;61.89;98469.98;4193170;84;28540;-85
2021/05/22 17:43:52;;;;;;;3.70;2.25;;;;;;;20.88;64.01;98467.46;4214845;82;28548;-85
2021/05/22 17:49:53;;;;;;;5.37;2.72;;;;;;;20.79;63.68;98466.58;4240634;82;28512;-85
2021/05/22 17:55:55;;;;;;;4.60;2.33;;;;;;;20.29;67.49;98469.71;4287361;81;28550;-86
2021/05/22 18:01:56;;;;;;;6.17;2.50;;;;;;;19.94;73.04;98481.14;4330982;80;28542;-85
2021/05/22 18:07:59;;;;;;;6.70;2.33;;;;;;;19.30;73.77;98490.08;4328341;80;28508;-83
2021/05/22 18:14:01;;;;;;;5.28;2.33;;;;;;;18.67;72.12;98492.53;4282087;81;28516;-84
2021/05/22 18:20:05;;;;;;;8.50;2.52;;;;;;;18.45;67.45;98491.83;4284146;81;28519;-85
2021/05/22 18:26:07;;;;;;;6.15;2.80;;;;;;;18.17;70.24;98505.30;4264276;81;28515;-85
2021/05/22 18:32:08;;;;;;;4.15;2.10;;;;;;;17.82;72.44;98512.27;4284915;81;28560;-84
2021/05/22 18:38:09;;;;;;;3.05;1.70;;;;;;;17.65;70.78;98502.42;4190101;83;28598;-84
2021/05/22 18:44:11;;;;;;;3.08;1.67;;;;;;;17.36;71.00;98518.28;4251750;81;28521;-84
2021/05/22 18:50:17;;;;;;;4.33;1.92;;;;;;;17.06;71.82;98534.59;4241324;83;28595;-84
2021/05/22 18:56:18;;;;;;;3.77;2.10;;;;;;;16.95;71.80;98542.00;4246257;83;28489;-86
2021/05/22 19:02:23;;;;;;;4.25;2.20;;;;;;;16.83;72.27;98561.94;4202976;84;28592;-86
2021/05/22 19:08:24;;;;;;;5.90;2.10;;;;;;;16.72;73.46;98572.05;4327561;81;28516;-86
2021/05/22 19:14:25;;;;;;;5.03;2.37;;;;;;;16.60;74.40;98583.25;4334288;81;28628;-86
2021/05/22 19:20:27;;;;;;;4.00;1.77;;;;;;;16.79;73.96;98602.94;4317967;81;28511;-86
2021/05/22 19:26:28;;;;;;;4.55;1.98;;;;;;;16.21;82.27;98612.54;4329830;81;28491;-86
2021/05/22 19:32:30;;;;;;;5.92;2.00;;;;;;;16.27;86.36;98619.55;4329798;81;28517;-87
2021/05/22 19:38:32;;;;;;;4.47;1.15;;;;;;;16.12;84.06;98660.57;4326736;81;28543;-85
2021/05/22 19:44:34;;;;;;;2.35;1.10;;;;;;;15.64;91.57;98647.93;4316304;81;28500;-84
2021/05/22 19:56:44;;;;;;;3.00;0.75;;;;;;;15.98;77.11;98625.09;3957593;89;28583;-85
2021/05/22 20:02:48;;;;;;;2.33;0.88;;;;;;;15.86;69.66;98637.57;3941644;89;28496;-85
2021/05/22 20:08:49;;;;;;;2.72;0.85;;;;;;;15.81;65.87;98655.75;3941198;89;28527;-88
2021/05/22 20:14:51;;;;;;;1.87;0.70;;;;;;;15.75;64.88;98662.55;3949647;89;28555;-86
2021/05/22 20:20:54;;;;;;;2.62;1.00;;;;;;;15.50;67.56;98672.06;3947801;89;28550;-87
2021/05/22 20:26:56;;;;;;;2.27;0.80;;;;;;;15.33;69.88;98665.84;3946997;89;28608;-86
2021/05/22 20:33:00;;;;;;;2.95;1.10;;;;;;;15.04;71.81;98665.59;4097854;84;28489;-87
2021/05/22 20:39:01;;;;;;;1.67;0.90;;;;;;;14.90;73.90;98668.83;4220898;83;28574;-87
2021/05/22 20:45:06;;;;;;;4.33;0.90;;;;;;;14.63;77.75;98673.05;4223427;83;28784;-85
2021/05/22 20:51:08;;;;;;;2.52;0.90;;;;;;;14.52;77.65;98688.45;4300411;82;28559;-87
2021/05/22 20:57:10;;;;;;;2.02;1.10;;;;;;;14.96;76.77;98718.38;4331692;82;28505;-88
2021/05/22 21:03:11;;;;;;;3.40;1.07;;;;;;;14.05;89.78;98776.10;4241849;83;28573;-86
2021/05/22 21:09:15;;;;;;;3.00;1.25;;;;;;;14.43;80.25;98776.07;4239506;83;28579;-87
2021/05/22 21:15:24;;;;;;;1.40;0.60;;;;;;;14.31;77.50;98802.48;4207300;83;28485;-87
